createdAt,value
2022-10-28T00:03:54.211Z,5.70
2022-10-28T00:08:16.049Z,6.13
2022-10-28T00:12:38.512Z,6.25
2022-10-28T00:17:00.318Z,7.25
2022-10-28T00:21:27.005Z,7.22
2022-10-28T00:25:48.627Z,6.55
2022-10-28T00:30:11.327Z,7.03
2022-10-28T00:34:32.968Z,6.55
2022-10-28T00:38:56.609Z,6.07
2022-10-28T00:43:43.181Z,5.53
2022-10-28T00:48:05.992Z,5.28
2022-10-28T00:52:30.919Z,5.60
2022-10-28T00:56:58.160Z,5.90
2022-10-28T01:01:20.149Z,6.20
2022-10-28T01:05:44.527Z,5.63
2022-10-28T01:10:08.175Z,6.65
2022-10-28T01:14:44.903Z,6.72
2022-10-28T01:19:29.822Z,6.10
2022-10-28T01:24:44.673Z,6.43
2022-10-28T01:29:19.284Z,5.53
2022-10-28T01:34:03.788Z,5.20
2022-10-28T01:38:35.039Z,6.18
2022-10-28T01:43:23.050Z,5.32
2022-10-28T01:48:02.345Z,5.93
2022-10-28T01:52:28.949Z,5.28
2022-10-28T01:56:55.451Z,5.53
2022-10-28T02:01:19.585Z,5.47
2022-10-28T02:05:49.411Z,5.82
2022-10-28T02:10:21.708Z,6.25
2022-10-28T02:15:01.895Z,5.68
2022-10-28T02:19:43.030Z,6.00
2022-10-28T02:24:46.023Z,5.10
2022-10-28T02:29:15.557Z,5.88
2022-10-28T02:33:40.467Z,5.32
2022-10-28T02:38:09.776Z,4.82
2022-10-28T02:42:37.382Z,5.22
2022-10-28T02:47:06.466Z,5.50
2022-10-28T02:51:37.757Z,4.90
2022-10-28T02:56:03.400Z,5.30
2022-10-28T03:00:25.346Z,6.13
2022-10-28T03:04:47.168Z,7.38
2022-10-28T03:09:09.199Z,6.03
2022-10-28T03:13:31.297Z,5.38
2022-10-28T03:17:53.282Z,5.35
2022-10-28T03:22:15.123Z,6.88
2022-10-28T03:26:37.058Z,5.88
2022-10-28T03:30:58.807Z,7.05
2022-10-28T03:35:20.671Z,6.10
2022-10-28T03:39:42.377Z,15.90
2022-10-28T03:44:04.462Z,6.15
2022-10-28T03:48:26.673Z,5.80
2022-10-28T03:52:48.512Z,5.80
2022-10-28T03:57:10.462Z,6.00
2022-10-28T04:01:32.406Z,6.38
2022-10-28T04:05:54.708Z,6.45
2022-10-28T04:10:16.523Z,6.57
2022-10-28T04:14:38.449Z,5.45
2022-10-28T04:19:00.489Z,5.88
2022-10-28T04:23:22.571Z,6.22
2022-10-28T04:27:45.391Z,6.78
2022-10-28T04:32:07.197Z,6.13
2022-10-28T04:36:29.182Z,6.45
2022-10-28T04:40:51.264Z,6.68
2022-10-28T04:45:13.226Z,6.35
2022-10-28T04:49:36.754Z,7.45
2022-10-28T04:54:00.805Z,6.43
2022-10-28T04:58:22.719Z,5.88
2022-10-28T05:02:46.097Z,6.53
2022-10-28T05:07:07.980Z,5.05
2022-10-28T05:11:30.066Z,5.78
2022-10-28T05:15:52.099Z,5.90
2022-10-28T05:20:17.913Z,5.88
2022-10-28T05:24:39.844Z,5.40
2022-10-28T05:29:01.828Z,4.88
2022-10-28T05:33:24.079Z,5.25
2022-10-28T05:37:45.842Z,5.75
2022-10-28T05:42:07.859Z,5.85
2022-10-28T05:46:29.659Z,5.45
2022-10-28T05:50:51.678Z,5.60
2022-10-28T05:55:13.926Z,6.05
2022-10-28T05:59:35.570Z,5.90
2022-10-28T06:03:57.431Z,6.50
2022-10-28T06:08:19.445Z,6.45
2022-10-28T06:12:39.920Z,6.90
2022-10-28T06:17:01.698Z,7.07
2022-10-28T06:21:23.627Z,7.03
2022-10-28T06:25:45.655Z,6.55
2022-10-28T06:30:08.339Z,6.63
2022-10-28T06:34:30.066Z,6.10
2022-10-28T06:38:52.689Z,5.68
2022-10-28T06:43:15.027Z,5.55
2022-10-28T06:47:41.359Z,5.20
2022-10-28T06:52:03.774Z,4.85
2022-10-28T06:56:25.515Z,5.63
2022-10-28T07:00:47.804Z,5.03
2022-10-28T07:05:10.380Z,5.05
2022-10-28T07:09:33.643Z,5.55
2022-10-28T07:13:55.457Z,4.30
2022-10-28T07:18:17.439Z,9.48
2022-10-28T07:22:39.248Z,5.18
2022-10-28T07:27:01.198Z,6.13
2022-10-28T07:31:23.420Z,5.03
2022-10-28T07:35:45.569Z,4.65
2022-10-28T07:40:08.370Z,4.75
2022-10-28T07:44:30.293Z,4.40
2022-10-28T07:48:52.240Z,4.82
2022-10-28T07:57:41.042Z,4.28
2022-10-28T08:02:04.154Z,4.75
2022-10-28T08:06:25.902Z,4.43
2022-10-28T08:10:47.814Z,3.95
2022-10-28T08:15:10.693Z,3.92
2022-10-28T08:19:32.540Z,4.10
2022-10-28T08:23:55.568Z,3.90
2022-10-28T08:28:18.106Z,4.75
2022-10-28T08:32:39.922Z,4.53
2022-10-28T08:37:01.917Z,4.55
2022-10-28T08:41:41.173Z,4.50
2022-10-28T08:46:51.843Z,4.15
2022-10-28T08:51:20.787Z,4.00
2022-10-28T08:55:52.088Z,3.97
2022-10-28T09:00:35.086Z,3.65
2022-10-28T09:05:16.601Z,3.20
2022-10-28T09:09:39.131Z,2.95
2022-10-28T09:14:37.439Z,3.40
2022-10-28T09:19:24.109Z,2.88
2022-10-28T09:23:58.615Z,3.20
2022-10-28T09:28:54.728Z,2.83
2022-10-28T09:33:34.975Z,2.80
2022-10-28T09:38:29.372Z,3.00
2022-10-28T09:43:28.298Z,2.70
2022-10-28T09:48:32.573Z,2.30
2022-10-28T09:53:21.487Z,2.78
2022-10-28T09:57:44.317Z,3.25
2022-10-28T10:02:18.961Z,2.38
2022-10-28T10:06:42.933Z,2.60
2022-10-28T10:11:29.708Z,3.15
2022-10-28T10:16:00.557Z,2.75
2022-10-28T10:20:22.548Z,3.13
2022-10-28T10:24:45.965Z,3.55
2022-10-28T10:29:12.504Z,2.75
2022-10-28T10:33:40.411Z,3.33
2022-10-28T10:38:06.153Z,2.38
2022-10-28T10:42:28.094Z,3.50
2022-10-28T10:47:06.284Z,3.30
2022-10-28T10:51:30.106Z,3.35
2022-10-28T10:55:56.606Z,3.05
2022-10-28T11:00:23.390Z,2.90
2022-10-28T11:04:55.869Z,3.30
2022-10-28T11:09:36.902Z,3.15
2022-10-28T11:14:10.969Z,2.80
2022-10-28T11:18:45.493Z,3.25
2022-10-28T11:23:13.233Z,3.35
2022-10-28T11:27:57.536Z,3.20
2022-10-28T11:33:01.365Z,3.00
2022-10-28T11:37:59.539Z,3.40
2022-10-28T11:42:46.201Z,3.22
2022-10-28T11:47:20.130Z,2.80
2022-10-28T11:52:51.422Z,2.97
2022-10-28T11:57:49.499Z,2.88
2022-10-28T12:02:52.311Z,2.58
2022-10-28T12:07:21.922Z,2.90
2022-10-28T12:12:14.722Z,3.15
2022-10-28T12:16:51.552Z,2.78
2022-10-28T12:21:41.622Z,3.08
2022-10-28T12:26:07.922Z,2.60
2022-10-28T12:30:34.354Z,2.65
2022-10-28T12:35:38.515Z,2.72
2022-10-28T12:40:18.512Z,2.83
2022-10-28T12:44:41.931Z,2.70
2022-10-28T12:49:33.887Z,2.08
2022-10-28T12:54:15.112Z,2.45
2022-10-28T12:59:20.700Z,2.17
2022-10-28T13:03:42.857Z,2.35
2022-10-28T13:08:22.682Z,3.15
2022-10-28T13:13:13.548Z,3.17
2022-10-28T13:18:02.995Z,3.05
2022-10-28T13:22:44.987Z,2.85
2022-10-28T13:27:13.689Z,3.10
2022-10-28T13:31:42.181Z,3.03
2022-10-28T13:36:28.677Z,2.75
2022-10-28T13:40:59.009Z,3.15
2022-10-28T13:45:56.216Z,2.53
2022-10-28T13:50:33.774Z,2.90
2022-10-28T13:55:00.952Z,2.90
2022-10-28T13:59:30.969Z,3.78
2022-10-28T14:03:53.099Z,2.60
2022-10-28T14:08:29.644Z,2.72
2022-10-28T14:13:21.575Z,3.00
2022-10-28T14:17:50.048Z,3.03
2022-10-28T14:22:11.829Z,2.53
2022-10-28T14:27:18.210Z,3.78
2022-10-28T14:31:42.516Z,3.05
2022-10-28T14:36:19.477Z,3.40
2022-10-28T14:41:06.413Z,2.83
2022-10-28T14:45:34.281Z,3.60
2022-10-28T14:50:14.453Z,3.88
2022-10-28T14:54:52.397Z,3.20
2022-10-28T14:59:37.741Z,2.90
2022-10-28T15:04:04.053Z,3.75
2022-10-28T15:08:25.756Z,3.42
2022-10-28T15:12:51.897Z,3.78
2022-10-28T15:17:22.560Z,3.70
2022-10-28T15:21:44.344Z,2.90
2022-10-28T15:26:14.481Z,3.35
2022-10-28T15:30:45.815Z,4.28
2022-10-28T15:35:51.140Z,3.95
2022-10-28T15:40:28.131Z,8.18
2022-10-28T15:44:56.733Z,3.97
2022-10-28T15:49:40.423Z,4.75
2022-10-28T15:54:18.988Z,4.25
2022-10-28T15:58:46.950Z,3.47
2022-10-28T16:03:40.219Z,3.30
2022-10-28T16:08:38.401Z,3.05
2022-10-28T16:13:01.592Z,2.90
2022-10-28T16:17:27.641Z,3.10
2022-10-28T16:21:49.440Z,3.05
2022-10-28T16:26:12.505Z,2.83
2022-10-28T16:30:34.439Z,2.65
2022-10-28T16:34:58.760Z,3.10
2022-10-28T16:39:20.890Z,3.28
2022-10-28T16:43:43.340Z,3.60
2022-10-28T16:48:11.320Z,3.30
2022-10-28T16:52:34.960Z,3.55
2022-10-28T16:56:58.210Z,3.00
2022-10-28T17:01:22.511Z,3.78
2022-10-28T17:05:44.750Z,4.28
2022-10-28T17:10:07.889Z,5.18
2022-10-28T17:14:29.691Z,5.00
2022-10-28T17:18:51.970Z,4.80
2022-10-28T17:23:13.940Z,4.43
2022-10-28T17:27:53.252Z,5.00
2022-10-28T17:32:35.438Z,4.53
2022-10-28T18:26:14.306Z,4.20
2022-10-28T18:31:52.505Z,4.88
2022-10-28T18:42:46.748Z,4.22
2022-10-28T18:47:58.515Z,4.53
2022-10-28T19:04:06.703Z,4.75
2022-10-28T19:10:03.739Z,5.25
2022-10-28T19:30:39.075Z,4.45
2022-10-28T19:35:00.991Z,4.13
2022-10-28T19:39:23.082Z,4.47
2022-10-28T19:43:45.617Z,4.00
2022-10-28T19:48:07.667Z,4.60
2022-10-28T19:52:29.837Z,6.03
2022-10-28T19:56:51.828Z,5.05
2022-10-28T20:01:14.410Z,4.55
2022-10-28T20:05:36.207Z,4.97
2022-10-28T20:14:20.990Z,3.67
2022-10-28T20:18:44.514Z,4.50
2022-10-28T20:23:06.129Z,4.00
2022-10-28T20:27:28.021Z,3.97
2022-10-28T20:31:49.955Z,4.40
2022-10-28T20:36:23.899Z,4.55
2022-10-28T20:40:57.351Z,4.45
2022-10-28T20:45:19.216Z,5.65
2022-10-28T20:49:42.747Z,4.72
2022-10-28T20:54:05.048Z,3.70
2022-10-28T20:58:31.442Z,4.38
2022-10-28T21:02:55.214Z,3.72
2022-10-28T21:07:17.479Z,4.35
2022-10-28T21:11:39.646Z,4.65
2022-10-28T21:16:10.856Z,4.45
2022-10-28T21:20:35.857Z,4.55
2022-10-28T21:24:58.976Z,4.05
2022-10-28T21:29:20.865Z,4.05
2022-10-28T21:33:43.803Z,4.57
2022-10-28T21:38:05.658Z,3.95
2022-10-28T21:42:27.539Z,3.70
2022-10-28T21:46:50.089Z,3.58
2022-10-28T21:51:16.307Z,3.45
2022-10-28T21:55:54.850Z,3.90
2022-10-28T22:00:17.423Z,3.97
2022-10-28T22:04:39.582Z,3.45
2022-10-28T22:09:03.433Z,4.05
2022-10-28T22:13:25.496Z,3.30
2022-10-28T22:17:47.585Z,3.65
2022-10-28T22:22:09.390Z,4.07
2022-10-28T22:26:33.173Z,3.17
2022-10-28T22:31:03.905Z,3.17
2022-10-28T22:35:26.147Z,3.53
2022-10-28T22:39:53.518Z,3.15
2022-10-28T22:44:15.490Z,3.63
2022-10-28T22:48:38.081Z,3.90
2022-10-28T22:52:59.877Z,3.20
2022-10-28T22:57:21.795Z,3.30
2022-10-28T23:01:43.934Z,3.38
2022-10-28T23:06:06.413Z,3.67
2022-10-28T23:10:28.944Z,3.90
2022-10-28T23:14:50.825Z,3.50
2022-10-28T23:19:12.985Z,3.75
2022-10-28T23:23:34.973Z,3.78
2022-10-28T23:27:57.339Z,3.55
2022-10-28T23:32:19.400Z,3.22
2022-10-28T23:36:41.422Z,2.95
2022-10-28T23:41:07.457Z,3.15
2022-10-28T23:45:29.149Z,3.55
2022-10-28T23:49:50.998Z,4.05
2022-10-28T23:54:13.030Z,3.20
2022-10-28T23:58:34.881Z,2.70
